sensor_id;sensor_type;location;lat;lon;timestamp;P1;durP1;ratioP1;P2;durP2;ratioP2
18806;SDS011;9531;52.030;4.380;2023-02-12T00:01:07;12.98;;;7.30;;
18806;SDS011;9531;52.030;4.380;2023-02-12T00:03:35;16.05;;;7.65;;
18806;SDS011;9531;52.030;4.380;2023-02-12T00:09:03;12.07;;;7.40;;
18806;SDS011;9531;52.030;4.380;2023-02-12T00:11:35;13.02;;;7.85;;
18806;SDS011;9531;52.030;4.380;2023-02-12T00:14:02;12.70;;;7.50;;
18806;SDS011;9531;52.030;4.380;2023-02-12T00:16:37;15.07;;;7.43;;
18806;SDS011;9531;52.030;4.380;2023-02-12T00:19:04;11.43;;;6.80;;
18806;SDS011;9531;52.030;4.380;2023-02-12T00:21:32;12.77;;;7.30;;
18806;SDS011;9531;52.030;4.380;2023-02-12T00:24:02;12.73;;;7.22;;
18806;SDS011;9531;52.030;4.380;2023-02-12T00:26:30;12.68;;;7.80;;
18806;SDS011;9531;52.030;4.380;2023-02-12T00:28:58;14.73;;;7.32;;
18806;SDS011;9531;52.030;4.380;2023-02-12T00:31:28;15.38;;;7.63;;
18806;SDS011;9531;52.030;4.380;2023-02-12T00:33:57;14.63;;;7.28;;
18806;SDS011;9531;52.030;4.380;2023-02-12T00:36:25;14.35;;;7.45;;
18806;SDS011;9531;52.030;4.380;2023-02-12T00:39:03;10.35;;;7.00;;
18806;SDS011;9531;52.030;4.380;2023-02-12T00:41:30;14.65;;;6.97;;
18806;SDS011;9531;52.030;4.380;2023-02-12T00:43:59;11.32;;;6.63;;
18806;SDS011;9531;52.030;4.380;2023-02-12T00:46:26;13.02;;;6.93;;
18806;SDS011;9531;52.030;4.380;2023-02-12T00:48:54;12.73;;;7.30;;
18806;SDS011;9531;52.030;4.380;2023-02-12T00:51:27;15.57;;;6.97;;
18806;SDS011;9531;52.030;4.380;2023-02-12T00:53:54;10.50;;;6.50;;
18806;SDS011;9531;52.030;4.380;2023-02-12T00:56:23;10.02;;;6.95;;
18806;SDS011;9531;52.030;4.380;2023-02-12T00:58:51;12.30;;;6.65;;
18806;SDS011;9531;52.030;4.380;2023-02-12T01:01:19;10.98;;;5.90;;
18806;SDS011;9531;52.030;4.380;2023-02-12T01:03:46;13.05;;;6.32;;
18806;SDS011;9531;52.030;4.380;2023-02-12T01:06:13;11.95;;;6.70;;
18806;SDS011;9531;52.030;4.380;2023-02-12T01:08:40;10.60;;;6.32;;
18806;SDS011;9531;52.030;4.380;2023-02-12T01:11:10;15.57;;;6.63;;
18806;SDS011;9531;52.030;4.380;2023-02-12T01:13:39;11.57;;;6.72;;
18806;SDS011;9531;52.030;4.380;2023-02-12T01:16:15;10.43;;;5.53;;
18806;SDS011;9531;52.030;4.380;2023-02-12T01:18:54;12.65;;;7.00;;
18806;SDS011;9531;52.030;4.380;2023-02-12T01:21:22;11.73;;;6.47;;
18806;SDS011;9531;52.030;4.380;2023-02-12T01:23:50;10.68;;;6.25;;
18806;SDS011;9531;52.030;4.380;2023-02-12T01:26:19;10.35;;;6.10;;
18806;SDS011;9531;52.030;4.380;2023-02-12T01:28:50;10.38;;;5.15;;
18806;SDS011;9531;52.030;4.380;2023-02-12T01:31:20;9.52;;;5.25;;
18806;SDS011;9531;52.030;4.380;2023-02-12T01:33:49;9.07;;;5.45;;
18806;SDS011;9531;52.030;4.380;2023-02-12T01:36:19;10.73;;;6.05;;
18806;SDS011;9531;52.030;4.380;2023-02-12T01:38:46;8.95;;;5.45;;
18806;SDS011;9531;52.030;4.380;2023-02-12T01:41:18;7.30;;;5.22;;
18806;SDS011;9531;52.030;4.380;2023-02-12T01:46:37;8.38;;;5.30;;
18806;SDS011;9531;52.030;4.380;2023-02-12T01:49:05;8.55;;;5.07;;
18806;SDS011;9531;52.030;4.380;2023-02-12T01:54:09;8.20;;;5.00;;
18806;SDS011;9531;52.030;4.380;2023-02-12T01:56:39;9.18;;;4.68;;
18806;SDS011;9531;52.030;4.380;2023-02-12T01:59:09;7.93;;;4.68;;
18806;SDS011;9531;52.030;4.380;2023-02-12T02:01:38;7.72;;;4.40;;
18806;SDS011;9531;52.030;4.380;2023-02-12T02:04:20;7.90;;;4.68;;
18806;SDS011;9531;52.030;4.380;2023-02-12T02:06:53;7.57;;;4.40;;
18806;SDS011;9531;52.030;4.380;2023-02-12T02:09:30;7.32;;;4.00;;
18806;SDS011;9531;52.030;4.380;2023-02-12T02:11:59;8.45;;;4.07;;
18806;SDS011;9531;52.030;4.380;2023-02-12T02:14:43;6.25;;;3.55;;
18806;SDS011;9531;52.030;4.380;2023-02-12T02:17:27;8.55;;;3.88;;
18806;SDS011;9531;52.030;4.380;2023-02-12T02:20:14;6.22;;;3.63;;
18806;SDS011;9531;52.030;4.380;2023-02-12T02:26:12;5.80;;;3.63;;
18806;SDS011;9531;52.030;4.380;2023-02-12T02:29:10;5.57;;;3.40;;
18806;SDS011;9531;52.030;4.380;2023-02-12T02:31:48;6.40;;;3.08;;
18806;SDS011;9531;52.030;4.380;2023-02-12T02:34:26;5.60;;;3.20;;
18806;SDS011;9531;52.030;4.380;2023-02-12T02:37:00;4.80;;;2.63;;
18806;SDS011;9531;52.030;4.380;2023-02-12T02:39:47;5.20;;;2.50;;
18806;SDS011;9531;52.030;4.380;2023-02-12T02:42:18;5.90;;;2.25;;
18806;SDS011;9531;52.030;4.380;2023-02-12T02:44:53;4.72;;;2.28;;
18806;SDS011;9531;52.030;4.380;2023-02-12T02:47:29;3.58;;;2.70;;
18806;SDS011;9531;52.030;4.380;2023-02-12T02:50:04;5.25;;;2.10;;
18806;SDS011;9531;52.030;4.380;2023-02-12T02:52:39;3.58;;;2.40;;
18806;SDS011;9531;52.030;4.380;2023-02-12T02:55:13;4.07;;;2.38;;
18806;SDS011;9531;52.030;4.380;2023-02-12T02:57:46;4.90;;;2.25;;
18806;SDS011;9531;52.030;4.380;2023-02-12T03:00:19;2.83;;;2.00;;
18806;SDS011;9531;52.030;4.380;2023-02-12T03:02:55;4.28;;;2.03;;
18806;SDS011;9531;52.030;4.380;2023-02-12T03:05:26;3.65;;;2.28;;
18806;SDS011;9531;52.030;4.380;2023-02-12T03:07:59;3.28;;;1.90;;
18806;SDS011;9531;52.030;4.380;2023-02-12T03:10:33;6.80;;;2.40;;
18806;SDS011;9531;52.030;4.380;2023-02-12T03:13:05;4.35;;;2.47;;
18806;SDS011;9531;52.030;4.380;2023-02-12T03:15:40;3.22;;;1.90;;
18806;SDS011;9531;52.030;4.380;2023-02-12T03:18:15;2.60;;;1.90;;
18806;SDS011;9531;52.030;4.380;2023-02-12T03:20:46;4.55;;;2.65;;
18806;SDS011;9531;52.030;4.380;2023-02-12T03:23:20;4.28;;;1.98;;
18806;SDS011;9531;52.030;4.380;2023-02-12T03:25:52;2.78;;;1.85;;
18806;SDS011;9531;52.030;4.380;2023-02-12T03:28:24;5.35;;;2.45;;
18806;SDS011;9531;52.030;4.380;2023-02-12T03:30:56;2.03;;;1.80;;
18806;SDS011;9531;52.030;4.380;2023-02-12T03:33:31;6.05;;;2.30;;
18806;SDS011;9531;52.030;4.380;2023-02-12T03:36:13;5.07;;;2.38;;
18806;SDS011;9531;52.030;4.380;2023-02-12T03:38:50;4.30;;;2.35;;
18806;SDS011;9531;52.030;4.380;2023-02-12T03:41:19;2.63;;;1.70;;
18806;SDS011;9531;52.030;4.380;2023-02-12T03:43:52;4.80;;;2.28;;
18806;SDS011;9531;52.030;4.380;2023-02-12T03:46:26;4.22;;;2.33;;
18806;SDS011;9531;52.030;4.380;2023-02-12T03:49:02;3.13;;;2.10;;
18806;SDS011;9531;52.030;4.380;2023-02-12T03:51:43;3.65;;;1.85;;
18806;SDS011;9531;52.030;4.380;2023-02-12T03:54:17;3.90;;;2.00;;
18806;SDS011;9531;52.030;4.380;2023-02-12T03:56:46;3.35;;;2.50;;
18806;SDS011;9531;52.030;4.380;2023-02-12T03:59:16;4.78;;;2.50;;
18806;SDS011;9531;52.030;4.380;2023-02-12T04:01:54;3.63;;;2.40;;
18806;SDS011;9531;52.030;4.380;2023-02-12T04:04:28;4.63;;;2.40;;
18806;SDS011;9531;52.030;4.380;2023-02-12T04:06:56;2.30;;;2.05;;
18806;SDS011;9531;52.030;4.380;2023-02-12T04:09:24;2.40;;;1.95;;
18806;SDS011;9531;52.030;4.380;2023-02-12T04:11:56;4.38;;;2.17;;
18806;SDS011;9531;52.030;4.380;2023-02-12T04:14:36;3.97;;;2.30;;
18806;SDS011;9531;52.030;4.380;2023-02-12T04:17:11;2.20;;;2.00;;
18806;SDS011;9531;52.030;4.380;2023-02-12T04:19:53;3.92;;;2.35;;
18806;SDS011;9531;52.030;4.380;2023-02-12T04:22:29;4.65;;;2.40;;
18806;SDS011;9531;52.030;4.380;2023-02-12T04:25:12;7.35;;;2.40;;
18806;SDS011;9531;52.030;4.380;2023-02-12T04:27:46;3.65;;;2.40;;
18806;SDS011;9531;52.030;4.380;2023-02-12T04:30:23;3.80;;;2.33;;
18806;SDS011;9531;52.030;4.380;2023-02-12T04:32:58;3.67;;;2.35;;
18806;SDS011;9531;52.030;4.380;2023-02-12T04:35:30;3.03;;;2.60;;
18806;SDS011;9531;52.030;4.380;2023-02-12T04:38:02;3.50;;;2.58;;
18806;SDS011;9531;52.030;4.380;2023-02-12T04:40:37;3.95;;;2.50;;
18806;SDS011;9531;52.030;4.380;2023-02-12T04:43:24;5.28;;;2.60;;
18806;SDS011;9531;52.030;4.380;2023-02-12T04:45:58;6.20;;;2.67;;
18806;SDS011;9531;52.030;4.380;2023-02-12T04:48:25;4.22;;;2.70;;
18806;SDS011;9531;52.030;4.380;2023-02-12T04:50:53;4.20;;;2.63;;
18806;SDS011;9531;52.030;4.380;2023-02-12T04:53:22;6.32;;;2.60;;
18806;SDS011;9531;52.030;4.380;2023-02-12T04:55:48;4.55;;;2.70;;
18806;SDS011;9531;52.030;4.380;2023-02-12T04:58:17;4.13;;;2.50;;
18806;SDS011;9531;52.030;4.380;2023-02-12T05:00:44;4.30;;;2.40;;
18806;SDS011;9531;52.030;4.380;2023-02-12T05:03:12;2.78;;;2.47;;
18806;SDS011;9531;52.030;4.380;2023-02-12T05:05:39;3.55;;;2.38;;
18806;SDS011;9531;52.030;4.380;2023-02-12T05:08:08;4.18;;;2.25;;
18806;SDS011;9531;52.030;4.380;2023-02-12T05:10:35;3.10;;;2.60;;
18806;SDS011;9531;52.030;4.380;2023-02-12T05:13:05;4.20;;;2.60;;
18806;SDS011;9531;52.030;4.380;2023-02-12T05:15:32;3.28;;;2.42;;
18806;SDS011;9531;52.030;4.380;2023-02-12T05:17:59;3.75;;;2.45;;
18806;SDS011;9531;52.030;4.380;2023-02-12T05:20:28;5.72;;;2.40;;
18806;SDS011;9531;52.030;4.380;2023-02-12T05:22:56;5.57;;;2.60;;
18806;SDS011;9531;52.030;4.380;2023-02-12T05:25:25;3.67;;;2.40;;
18806;SDS011;9531;52.030;4.380;2023-02-12T05:27:54;2.90;;;2.38;;
18806;SDS011;9531;52.030;4.380;2023-02-12T05:30:22;3.53;;;2.58;;
18806;SDS011;9531;52.030;4.380;2023-02-12T05:32:49;3.55;;;2.35;;
18806;SDS011;9531;52.030;4.380;2023-02-12T05:35:16;4.07;;;2.25;;
18806;SDS011;9531;52.030;4.380;2023-02-12T05:37:43;4.18;;;2.10;;
18806;SDS011;9531;52.030;4.380;2023-02-12T05:40:12;3.42;;;2.47;;
18806;SDS011;9531;52.030;4.380;2023-02-12T05:42:43;3.58;;;2.30;;
18806;SDS011;9531;52.030;4.380;2023-02-12T05:45:13;4.75;;;2.20;;
18806;SDS011;9531;52.030;4.380;2023-02-12T05:47:43;2.63;;;2.20;;
18806;SDS011;9531;52.030;4.380;2023-02-12T05:50:10;3.50;;;2.50;;
18806;SDS011;9531;52.030;4.380;2023-02-12T05:52:37;3.05;;;2.25;;
18806;SDS011;9531;52.030;4.380;2023-02-12T05:55:05;3.85;;;2.60;;
18806;SDS011;9531;52.030;4.380;2023-02-12T05:57:33;4.75;;;2.38;;
18806;SDS011;9531;52.030;4.380;2023-02-12T06:00:01;3.83;;;2.45;;
18806;SDS011;9531;52.030;4.380;2023-02-12T06:02:32;2.42;;;2.13;;
18806;SDS011;9531;52.030;4.380;2023-02-12T06:04:59;2.78;;;2.22;;
18806;SDS011;9531;52.030;4.380;2023-02-12T06:07:27;4.53;;;2.78;;
18806;SDS011;9531;52.030;4.380;2023-02-12T06:09:54;5.63;;;2.65;;
18806;SDS011;9531;52.030;4.380;2023-02-12T06:12:22;6.03;;;2.60;;
18806;SDS011;9531;52.030;4.380;2023-02-12T06:14:49;3.65;;;2.40;;
18806;SDS011;9531;52.030;4.380;2023-02-12T06:17:18;4.07;;;2.58;;
18806;SDS011;9531;52.030;4.380;2023-02-12T06:19:45;2.95;;;2.40;;
18806;SDS011;9531;52.030;4.380;2023-02-12T06:22:12;4.65;;;2.50;;
18806;SDS011;9531;52.030;4.380;2023-02-12T06:24:40;2.63;;;2.42;;
18806;SDS011;9531;52.030;4.380;2023-02-12T06:27:07;2.78;;;2.25;;
18806;SDS011;9531;52.030;4.380;2023-02-12T06:29:34;3.55;;;2.22;;
18806;SDS011;9531;52.030;4.380;2023-02-12T06:32:02;3.42;;;2.20;;
18806;SDS011;9531;52.030;4.380;2023-02-12T06:34:30;6.07;;;2.83;;
18806;SDS011;9531;52.030;4.380;2023-02-12T06:36:57;2.95;;;2.20;;
18806;SDS011;9531;52.030;4.380;2023-02-12T06:39:25;2.33;;;2.13;;
18806;SDS011;9531;52.030;4.380;2023-02-12T06:41:53;3.75;;;2.40;;
18806;SDS011;9531;52.030;4.380;2023-02-12T06:44:20;3.13;;;2.30;;
18806;SDS011;9531;52.030;4.380;2023-02-12T06:46:47;4.22;;;2.67;;
18806;SDS011;9531;52.030;4.380;2023-02-12T06:49:16;3.20;;;2.55;;
18806;SDS011;9531;52.030;4.380;2023-02-12T06:51:44;4.00;;;2.53;;
18806;SDS011;9531;52.030;4.380;2023-02-12T06:54:11;3.33;;;2.60;;
18806;SDS011;9531;52.030;4.380;2023-02-12T06:56:39;3.38;;;2.35;;
18806;SDS011;9531;52.030;4.380;2023-02-12T06:59:09;4.53;;;2.50;;
18806;SDS011;9531;52.030;4.380;2023-02-12T07:01:39;5.18;;;2.58;;
18806;SDS011;9531;52.030;4.380;2023-02-12T07:04:06;3.10;;;2.45;;
18806;SDS011;9531;52.030;4.380;2023-02-12T07:06:33;3.08;;;2.47;;
18806;SDS011;9531;52.030;4.380;2023-02-12T07:09:04;3.17;;;2.30;;
18806;SDS011;9531;52.030;4.380;2023-02-12T07:11:32;3.28;;;2.28;;
18806;SDS011;9531;52.030;4.380;2023-02-12T07:14:00;3.28;;;2.40;;
18806;SDS011;9531;52.030;4.380;2023-02-12T07:16:28;3.53;;;2.35;;
18806;SDS011;9531;52.030;4.380;2023-02-12T07:18:55;3.95;;;2.55;;
18806;SDS011;9531;52.030;4.380;2023-02-12T07:21:21;4.95;;;2.78;;
18806;SDS011;9531;52.030;4.380;2023-02-12T07:23:49;3.17;;;2.70;;
18806;SDS011;9531;52.030;4.380;2023-02-12T07:26:19;3.95;;;2.88;;
18806;SDS011;9531;52.030;4.380;2023-02-12T07:28:47;2.88;;;2.50;;
18806;SDS011;9531;52.030;4.380;2023-02-12T07:31:17;3.45;;;2.67;;
18806;SDS011;9531;52.030;4.380;2023-02-12T07:33:45;5.30;;;3.65;;
18806;SDS011;9531;52.030;4.380;2023-02-12T07:36:14;2.95;;;2.65;;
18806;SDS011;9531;52.030;4.380;2023-02-12T07:38:43;4.05;;;2.78;;
18806;SDS011;9531;52.030;4.380;2023-02-12T07:41:11;3.55;;;2.95;;
18806;SDS011;9531;52.030;4.380;2023-02-12T07:43:41;6.25;;;3.63;;
18806;SDS011;9531;52.030;4.380;2023-02-12T07:46:11;4.03;;;3.58;;
18806;SDS011;9531;52.030;4.380;2023-02-12T07:48:40;5.38;;;3.83;;
18806;SDS011;9531;52.030;4.380;2023-02-12T07:51:08;6.05;;;3.70;;
18806;SDS011;9531;52.030;4.380;2023-02-12T07:53:37;7.20;;;4.00;;
18806;SDS011;9531;52.030;4.380;2023-02-12T07:56:05;6.18;;;3.65;;
18806;SDS011;9531;52.030;4.380;2023-02-12T07:58:36;4.88;;;4.07;;
18806;SDS011;9531;52.030;4.380;2023-02-12T08:01:11;5.57;;;4.20;;
18806;SDS011;9531;52.030;4.380;2023-02-12T08:03:40;9.68;;;3.58;;
18806;SDS011;9531;52.030;4.380;2023-02-12T08:06:08;17.10;;;3.75;;
18806;SDS011;9531;52.030;4.380;2023-02-12T08:08:36;8.50;;;4.30;;
18806;SDS011;9531;52.030;4.380;2023-02-12T08:11:04;8.25;;;4.28;;
18806;SDS011;9531;52.030;4.380;2023-02-12T08:13:31;7.53;;;4.15;;
18806;SDS011;9531;52.030;4.380;2023-02-12T08:16:04;10.20;;;5.00;;
18806;SDS011;9531;52.030;4.380;2023-02-12T08:18:34;6.00;;;4.72;;
18806;SDS011;9531;52.030;4.380;2023-02-12T08:21:01;6.10;;;4.20;;
18806;SDS011;9531;52.030;4.380;2023-02-12T08:23:29;6.00;;;4.43;;
18806;SDS011;9531;52.030;4.380;2023-02-12T08:26:03;11.77;;;5.88;;
18806;SDS011;9531;52.030;4.380;2023-02-12T08:28:31;9.90;;;6.10;;
18806;SDS011;9531;52.030;4.380;2023-02-12T08:30:59;11.18;;;6.00;;
18806;SDS011;9531;52.030;4.380;2023-02-12T08:33:28;8.95;;;5.97;;
18806;SDS011;9531;52.030;4.380;2023-02-12T08:36:04;13.02;;;7.72;;
18806;SDS011;9531;52.030;4.380;2023-02-12T08:38:33;11.75;;;6.88;;
18806;SDS011;9531;52.030;4.380;2023-02-12T08:41:08;9.90;;;7.45;;
18806;SDS011;9531;52.030;4.380;2023-02-12T08:43:37;11.07;;;7.18;;
18806;SDS011;9531;52.030;4.380;2023-02-12T08:46:06;12.10;;;8.15;;
18806;SDS011;9531;52.030;4.380;2023-02-12T08:48:36;12.63;;;8.05;;
18806;SDS011;9531;52.030;4.380;2023-02-12T08:51:06;13.60;;;8.60;;
18806;SDS011;9531;52.030;4.380;2023-02-12T08:53:35;16.13;;;8.82;;
18806;SDS011;9531;52.030;4.380;2023-02-12T08:56:03;15.52;;;9.00;;
18806;SDS011;9531;52.030;4.380;2023-02-12T08:58:31;13.90;;;9.35;;
18806;SDS011;9531;52.030;4.380;2023-02-12T09:00:58;13.10;;;9.02;;
18806;SDS011;9531;52.030;4.380;2023-02-12T09:03:25;15.52;;;10.07;;
18806;SDS011;9531;52.030;4.380;2023-02-12T09:05:52;14.95;;;8.32;;
18806;SDS011;9531;52.030;4.380;2023-02-12T09:08:21;14.82;;;8.90;;
18806;SDS011;9531;52.030;4.380;2023-02-12T09:10:48;14.13;;;9.05;;
18806;SDS011;9531;52.030;4.380;2023-02-12T09:13:18;13.82;;;9.13;;
18806;SDS011;9531;52.030;4.380;2023-02-12T09:15:46;12.23;;;8.90;;
18806;SDS011;9531;52.030;4.380;2023-02-12T09:18:13;12.90;;;8.60;;
18806;SDS011;9531;52.030;4.380;2023-02-12T09:20:41;15.90;;;9.38;;
18806;SDS011;9531;52.030;4.380;2023-02-12T09:23:13;14.95;;;9.30;;
18806;SDS011;9531;52.030;4.380;2023-02-12T09:25:42;15.15;;;9.25;;
18806;SDS011;9531;52.030;4.380;2023-02-12T09:28:11;14.90;;;9.55;;
18806;SDS011;9531;52.030;4.380;2023-02-12T09:30:40;11.80;;;8.55;;
18806;SDS011;9531;52.030;4.380;2023-02-12T09:33:07;14.15;;;8.75;;
18806;SDS011;9531;52.030;4.380;2023-02-12T09:35:36;12.93;;;8.88;;
18806;SDS011;9531;52.030;4.380;2023-02-12T09:38:06;14.10;;;9.18;;
18806;SDS011;9531;52.030;4.380;2023-02-12T09:40:35;15.13;;;8.60;;
18806;SDS011;9531;52.030;4.380;2023-02-12T09:43:13;13.60;;;8.77;;
18806;SDS011;9531;52.030;4.380;2023-02-12T09:45:45;15.75;;;9.13;;
18806;SDS011;9531;52.030;4.380;2023-02-12T09:48:26;15.35;;;9.20;;
18806;SDS011;9531;52.030;4.380;2023-02-12T09:51:05;13.32;;;8.77;;
18806;SDS011;9531;52.030;4.380;2023-02-12T09:53:38;13.48;;;8.65;;
18806;SDS011;9531;52.030;4.380;2023-02-12T09:56:17;14.00;;;8.27;;
18806;SDS011;9531;52.030;4.380;2023-02-12T09:58:48;13.55;;;9.07;;
18806;SDS011;9531;52.030;4.380;2023-02-12T10:01:25;15.38;;;8.63;;
18806;SDS011;9531;52.030;4.380;2023-02-12T10:03:54;16.38;;;8.77;;
18806;SDS011;9531;52.030;4.380;2023-02-12T10:06:23;12.82;;;8.48;;
18806;SDS011;9531;52.030;4.380;2023-02-12T10:09:00;15.02;;;8.00;;
18806;SDS011;9531;52.030;4.380;2023-02-12T10:11:48;13.90;;;8.25;;
18806;SDS011;9531;52.030;4.380;2023-02-12T10:14:28;14.60;;;8.25;;
18806;SDS011;9531;52.030;4.380;2023-02-12T10:17:14;14.40;;;8.25;;
18806;SDS011;9531;52.030;4.380;2023-02-12T10:19:54;13.15;;;8.50;;
18806;SDS011;9531;52.030;4.380;2023-02-12T10:22:38;15.50;;;8.23;;
18806;SDS011;9531;52.030;4.380;2023-02-12T10:25:14;14.95;;;8.82;;
18806;SDS011;9531;52.030;4.380;2023-02-12T10:27:49;14.52;;;8.50;;
18806;SDS011;9531;52.030;4.380;2023-02-12T10:30:21;17.90;;;8.38;;
18806;SDS011;9531;52.030;4.380;2023-02-12T10:32:53;10.25;;;7.88;;
18806;SDS011;9531;52.030;4.380;2023-02-12T10:35:27;14.77;;;8.52;;
18806;SDS011;9531;52.030;4.380;2023-02-12T10:37:56;14.65;;;8.93;;
18806;SDS011;9531;52.030;4.380;2023-02-12T10:40:27;13.05;;;8.82;;
18806;SDS011;9531;52.030;4.380;2023-02-12T10:43:03;16.73;;;9.95;;
18806;SDS011;9531;52.030;4.380;2023-02-12T10:45:33;13.07;;;8.55;;
18806;SDS011;9531;52.030;4.380;2023-02-12T10:48:06;15.38;;;10.25;;
18806;SDS011;9531;52.030;4.380;2023-02-12T10:50:38;14.82;;;9.77;;
18806;SDS011;9531;52.030;4.380;2023-02-12T10:53:20;12.32;;;8.05;;
18806;SDS011;9531;52.030;4.380;2023-02-12T10:55:49;15.10;;;10.15;;
18806;SDS011;9531;52.030;4.380;2023-02-12T10:58:36;12.05;;;7.40;;
18806;SDS011;9531;52.030;4.380;2023-02-12T11:01:15;14.80;;;10.85;;
18806;SDS011;9531;52.030;4.380;2023-02-12T11:03:46;15.27;;;9.55;;
18806;SDS011;9531;52.030;4.380;2023-02-12T11:06:20;16.23;;;10.00;;
18806;SDS011;9531;52.030;4.380;2023-02-12T11:08:49;14.70;;;8.52;;
18806;SDS011;9531;52.030;4.380;2023-02-12T11:11:19;14.77;;;8.82;;
18806;SDS011;9531;52.030;4.380;2023-02-12T11:13:52;10.07;;;7.18;;
18806;SDS011;9531;52.030;4.380;2023-02-12T11:16:30;11.80;;;6.65;;
18806;SDS011;9531;52.030;4.380;2023-02-12T11:18:59;9.80;;;6.05;;
18806;SDS011;9531;52.030;4.380;2023-02-12T11:21:28;12.07;;;6.80;;
18806;SDS011;9531;52.030;4.380;2023-02-12T11:23:56;11.98;;;7.70;;
18806;SDS011;9531;52.030;4.380;2023-02-12T11:26:24;10.45;;;7.18;;
18806;SDS011;9531;52.030;4.380;2023-02-12T11:28:59;12.60;;;6.80;;
18806;SDS011;9531;52.030;4.380;2023-02-12T11:31:33;12.25;;;7.38;;
18806;SDS011;9531;52.030;4.380;2023-02-12T11:34:11;11.23;;;7.07;;
18806;SDS011;9531;52.030;4.380;2023-02-12T11:36:42;10.65;;;7.45;;
18806;SDS011;9531;52.030;4.380;2023-02-12T11:39:18;11.93;;;7.90;;
18806;SDS011;9531;52.030;4.380;2023-02-12T11:41:49;13.18;;;8.48;;
18806;SDS011;9531;52.030;4.380;2023-02-12T11:44:19;12.55;;;7.68;;
18806;SDS011;9531;52.030;4.380;2023-02-12T11:46:52;9.07;;;6.30;;
18806;SDS011;9531;52.030;4.380;2023-02-12T11:49:23;9.93;;;6.28;;
18806;SDS011;9531;52.030;4.380;2023-02-12T11:51:53;12.40;;;8.30;;
18806;SDS011;9531;52.030;4.380;2023-02-12T11:54:22;18.33;;;9.52;;
18806;SDS011;9531;52.030;4.380;2023-02-12T11:57:00;13.35;;;8.18;;
18806;SDS011;9531;52.030;4.380;2023-02-12T11:59:32;10.40;;;5.35;;
18806;SDS011;9531;52.030;4.380;2023-02-12T12:02:04;12.77;;;8.55;;
18806;SDS011;9531;52.030;4.380;2023-02-12T12:04:43;11.35;;;8.27;;
18806;SDS011;9531;52.030;4.380;2023-02-12T12:07:13;15.18;;;7.95;;
18806;SDS011;9531;52.030;4.380;2023-02-12T12:09:45;11.80;;;7.82;;
18806;SDS011;9531;52.030;4.380;2023-02-12T12:12:16;11.38;;;7.75;;
18806;SDS011;9531;52.030;4.380;2023-02-12T12:14:48;13.25;;;8.10;;
18806;SDS011;9531;52.030;4.380;2023-02-12T12:17:39;14.43;;;8.95;;
18806;SDS011;9531;52.030;4.380;2023-02-12T12:20:29;13.18;;;8.55;;
18806;SDS011;9531;52.030;4.380;2023-02-12T12:23:02;9.90;;;6.57;;
18806;SDS011;9531;52.030;4.380;2023-02-12T12:25:35;13.60;;;8.95;;
18806;SDS011;9531;52.030;4.380;2023-02-12T12:28:13;10.50;;;7.22;;
18806;SDS011;9531;52.030;4.380;2023-02-12T12:30:59;15.10;;;8.02;;
18806;SDS011;9531;52.030;4.380;2023-02-12T12:33:36;12.07;;;8.32;;
18806;SDS011;9531;52.030;4.380;2023-02-12T12:39:07;11.68;;;6.93;;
18806;SDS011;9531;52.030;4.380;2023-02-12T12:41:51;14.30;;;9.00;;
18806;SDS011;9531;52.030;4.380;2023-02-12T12:44:30;12.05;;;6.90;;
18806;SDS011;9531;52.030;4.380;2023-02-12T12:47:14;11.05;;;7.15;;
18806;SDS011;9531;52.030;4.380;2023-02-12T12:49:55;12.85;;;7.22;;
18806;SDS011;9531;52.030;4.380;2023-02-12T12:55:33;11.65;;;8.05;;
18806;SDS011;9531;52.030;4.380;2023-02-12T12:58:15;11.52;;;7.45;;
18806;SDS011;9531;52.030;4.380;2023-02-12T13:01:05;11.57;;;7.43;;
18806;SDS011;9531;52.030;4.380;2023-02-12T13:06:56;9.13;;;6.13;;
18806;SDS011;9531;52.030;4.380;2023-02-12T13:09:35;10.10;;;7.35;;
18806;SDS011;9531;52.030;4.380;2023-02-12T13:15:26;8.65;;;5.05;;
18806;SDS011;9531;52.030;4.380;2023-02-12T13:18:00;11.02;;;7.30;;
18806;SDS011;9531;52.030;4.380;2023-02-12T13:20:35;10.73;;;6.18;;
18806;SDS011;9531;52.030;4.380;2023-02-12T13:23:12;10.68;;;7.30;;
18806;SDS011;9531;52.030;4.380;2023-02-12T13:25:45;9.35;;;5.40;;
18806;SDS011;9531;52.030;4.380;2023-02-12T13:28:21;10.15;;;5.75;;
18806;SDS011;9531;52.030;4.380;2023-02-12T13:30:55;11.40;;;7.47;;
18806;SDS011;9531;52.030;4.380;2023-02-12T13:33:25;9.88;;;7.13;;
18806;SDS011;9531;52.030;4.380;2023-02-12T13:36:00;12.27;;;7.05;;
18806;SDS011;9531;52.030;4.380;2023-02-12T13:38:31;12.20;;;7.97;;
18806;SDS011;9531;52.030;4.380;2023-02-12T13:41:02;12.73;;;8.02;;
18806;SDS011;9531;52.030;4.380;2023-02-12T13:43:38;15.30;;;9.13;;
18806;SDS011;9531;52.030;4.380;2023-02-12T13:46:17;13.57;;;8.38;;
18806;SDS011;9531;52.030;4.380;2023-02-12T13:48:52;13.80;;;10.02;;
18806;SDS011;9531;52.030;4.380;2023-02-12T13:51:35;13.57;;;9.40;;
18806;SDS011;9531;52.030;4.380;2023-02-12T13:57:07;11.20;;;8.10;;
18806;SDS011;9531;52.030;4.380;2023-02-12T13:59:38;6.68;;;4.75;;
18806;SDS011;9531;52.030;4.380;2023-02-12T14:02:40;12.80;;;7.95;;
18806;SDS011;9531;52.030;4.380;2023-02-12T14:07:56;13.35;;;9.82;;
18806;SDS011;9531;52.030;4.380;2023-02-12T14:10:31;8.77;;;6.72;;
18806;SDS011;9531;52.030;4.380;2023-02-12T14:13:11;12.55;;;8.18;;
18806;SDS011;9531;52.030;4.380;2023-02-12T14:15:47;9.38;;;5.88;;
18806;SDS011;9531;52.030;4.380;2023-02-12T14:18:27;13.10;;;8.90;;
18806;SDS011;9531;52.030;4.380;2023-02-12T14:27:20;14.52;;;8.93;;
18806;SDS011;9531;52.030;4.380;2023-02-12T14:30:03;12.80;;;9.05;;
18806;SDS011;9531;52.030;4.380;2023-02-12T14:35:46;12.30;;;8.43;;
18806;SDS011;9531;52.030;4.380;2023-02-12T14:41:29;13.70;;;10.23;;
18806;SDS011;9531;52.030;4.380;2023-02-12T14:50:14;10.77;;;7.20;;
18806;SDS011;9531;52.030;4.380;2023-02-12T14:52:48;18.77;;;10.98;;
18806;SDS011;9531;52.030;4.380;2023-02-12T14:55:21;8.88;;;6.38;;
18806;SDS011;9531;52.030;4.380;2023-02-12T14:57:54;10.55;;;7.97;;
18806;SDS011;9531;52.030;4.380;2023-02-12T15:00:29;17.95;;;10.98;;
18806;SDS011;9531;52.030;4.380;2023-02-12T15:03:01;11.90;;;8.25;;
18806;SDS011;9531;52.030;4.380;2023-02-12T15:05:41;18.80;;;12.02;;
18806;SDS011;9531;52.030;4.380;2023-02-12T15:08:14;14.43;;;9.95;;
18806;SDS011;9531;52.030;4.380;2023-02-12T15:10:51;12.30;;;7.80;;
18806;SDS011;9531;52.030;4.380;2023-02-12T15:13:23;19.30;;;10.88;;
18806;SDS011;9531;52.030;4.380;2023-02-12T15:15:56;22.52;;;12.02;;
18806;SDS011;9531;52.030;4.380;2023-02-12T15:18:33;22.13;;;13.40;;
18806;SDS011;9531;52.030;4.380;2023-02-12T15:21:12;26.73;;;13.43;;
18806;SDS011;9531;52.030;4.380;2023-02-12T15:23:45;17.13;;;12.00;;
18806;SDS011;9531;52.030;4.380;2023-02-12T15:26:14;19.40;;;12.32;;
18806;SDS011;9531;52.030;4.380;2023-02-12T15:28:44;18.35;;;12.27;;
18806;SDS011;9531;52.030;4.380;2023-02-12T15:31:15;21.75;;;14.25;;
18806;SDS011;9531;52.030;4.380;2023-02-12T15:33:47;16.00;;;10.77;;
18806;SDS011;9531;52.030;4.380;2023-02-12T15:36:16;14.02;;;9.65;;
18806;SDS011;9531;52.030;4.380;2023-02-12T15:38:47;16.75;;;10.25;;
18806;SDS011;9531;52.030;4.380;2023-02-12T15:41:24;16.55;;;11.05;;
18806;SDS011;9531;52.030;4.380;2023-02-12T15:43:54;23.80;;;12.88;;
18806;SDS011;9531;52.030;4.380;2023-02-12T15:46:23;22.50;;;14.85;;
18806;SDS011;9531;52.030;4.380;2023-02-12T15:48:50;14.10;;;9.23;;
18806;SDS011;9531;52.030;4.380;2023-02-12T15:51:21;15.38;;;10.25;;
18806;SDS011;9531;52.030;4.380;2023-02-12T15:53:53;16.92;;;11.00;;
18806;SDS011;9531;52.030;4.380;2023-02-12T15:56:22;17.35;;;10.70;;
18806;SDS011;9531;52.030;4.380;2023-02-12T15:58:57;14.55;;;9.70;;
18806;SDS011;9531;52.030;4.380;2023-02-12T16:01:28;13.77;;;9.13;;
18806;SDS011;9531;52.030;4.380;2023-02-12T16:03:57;17.48;;;11.60;;
18806;SDS011;9531;52.030;4.380;2023-02-12T16:06:26;15.45;;;9.95;;
18806;SDS011;9531;52.030;4.380;2023-02-12T16:08:55;21.65;;;13.55;;
18806;SDS011;9531;52.030;4.380;2023-02-12T16:11:24;24.38;;;14.57;;